sensor_id;sensor_type;location;lat;lon;timestamp;pressure;altitude;pressure_sealevel;temperature;humidity
26489;BME280;14169;43.684;10.484;2023-04-19T00:02:19;101560.88;;;15.05;100.00
26489;BME280;14169;43.684;10.484;2023-04-19T00:04:44;101565.19;;;15.08;100.00
26489;BME280;14169;43.684;10.484;2023-04-19T00:07:11;101564.44;;;15.04;100.00
26489;BME280;14169;43.684;10.484;2023-04-19T00:09:38;101568.09;;;15.00;100.00
26489;BME280;14169;43.684;10.484;2023-04-19T00:12:03;101562.94;;;14.97;100.00
26489;BME280;14169;43.684;10.484;2023-04-19T00:14:29;101567.38;;;14.95;100.00
26489;BME280;14169;43.684;10.484;2023-04-19T00:16:55;101564.91;;;14.92;100.00
26489;BME280;14169;43.684;10.484;2023-04-19T00:19:20;101559.56;;;14.94;100.00
26489;BME280;14169;43.684;10.484;2023-04-19T00:21:46;101558.72;;;14.93;100.00
26489;BME280;14169;43.684;10.484;2023-04-19T00:24:12;101560.81;;;14.84;100.00
26489;BME280;14169;43.684;10.484;2023-04-19T00:26:37;101553.91;;;14.81;100.00
26489;BME280;14169;43.684;10.484;2023-04-19T00:29:03;101554.09;;;14.77;100.00
26489;BME280;14169;43.684;10.484;2023-04-19T00:31:28;101560.88;;;14.82;100.00
26489;BME280;14169;43.684;10.484;2023-04-19T00:33:55;101554.84;;;14.80;100.00
26489;BME280;14169;43.684;10.484;2023-04-19T00:36:23;101563.50;;;14.82;100.00
26489;BME280;14169;43.684;10.484;2023-04-19T00:38:48;101557.56;;;14.77;100.00
26489;BME280;14169;43.684;10.484;2023-04-19T00:41:14;101557.03;;;14.68;100.00
26489;BME280;14169;43.684;10.484;2023-04-19T00:43:40;101557.41;;;14.57;100.00
26489;BME280;14169;43.684;10.484;2023-04-19T00:46:05;101554.31;;;14.46;100.00
26489;BME280;14169;43.684;10.484;2023-04-19T00:48:32;101551.16;;;14.37;100.00
26489;BME280;14169;43.684;10.484;2023-04-19T00:51:00;101553.97;;;14.30;100.00
26489;BME280;14169;43.684;10.484;2023-04-19T00:53:26;101548.78;;;14.29;100.00
26489;BME280;14169;43.684;10.484;2023-04-19T00:55:51;101541.72;;;14.31;100.00
26489;BME280;14169;43.684;10.484;2023-04-19T00:58:18;101537.44;;;14.28;100.00
26489;BME280;14169;43.684;10.484;2023-04-19T01:00:44;101540.13;;;14.27;100.00
26489;BME280;14169;43.684;10.484;2023-04-19T01:03:09;101542.88;;;14.22;100.00
26489;BME280;14169;43.684;10.484;2023-04-19T01:05:34;101538.53;;;13.97;100.00
26489;BME280;14169;43.684;10.484;2023-04-19T01:08:00;101539.31;;;13.73;100.00
26489;BME280;14169;43.684;10.484;2023-04-19T01:10:25;101544.13;;;13.59;100.00
26489;BME280;14169;43.684;10.484;2023-04-19T01:12:51;101550.63;;;13.16;100.00
26489;BME280;14169;43.684;10.484;2023-04-19T01:15:17;101556.75;;;12.86;100.00
26489;BME280;14169;43.684;10.484;2023-04-19T01:17:42;101548.47;;;12.71;100.00
26489;BME280;14169;43.684;10.484;2023-04-19T01:20:08;101555.50;;;12.69;100.00
26489;BME280;14169;43.684;10.484;2023-04-19T01:22:34;101554.81;;;12.62;100.00
26489;BME280;14169;43.684;10.484;2023-04-19T01:25:02;101557.59;;;12.56;100.00
26489;BME280;14169;43.684;10.484;2023-04-19T01:27:28;101555.25;;;12.45;100.00
26489;BME280;14169;43.684;10.484;2023-04-19T01:29:54;101551.16;;;12.37;100.00
26489;BME280;14169;43.684;10.484;2023-04-19T01:32:19;101547.66;;;12.36;100.00
26489;BME280;14169;43.684;10.484;2023-04-19T01:34:45;101538.13;;;12.35;100.00
26489;BME280;14169;43.684;10.484;2023-04-19T01:37:11;101536.34;;;12.37;100.00
26489;BME280;14169;43.684;10.484;2023-04-19T01:39:36;101537.16;;;12.38;100.00
26489;BME280;14169;43.684;10.484;2023-04-19T01:42:02;101539.75;;;12.39;100.00
26489;BME280;14169;43.684;10.484;2023-04-19T01:44:28;101537.25;;;12.35;100.00
26489;BME280;14169;43.684;10.484;2023-04-19T01:46:53;101534.75;;;12.30;100.00
26489;BME280;14169;43.684;10.484;2023-04-19T01:49:20;101536.66;;;12.25;100.00
26489;BME280;14169;43.684;10.484;2023-04-19T01:51:45;101527.94;;;12.25;100.00
26489;BME280;14169;43.684;10.484;2023-04-19T01:54:10;101533.16;;;12.25;100.00
26489;BME280;14169;43.684;10.484;2023-04-19T01:56:36;101534.03;;;12.25;100.00
26489;BME280;14169;43.684;10.484;2023-04-19T01:59:01;101533.78;;;12.34;100.00
26489;BME280;14169;43.684;10.484;2023-04-19T02:01:28;101535.41;;;12.38;100.00
26489;BME280;14169;43.684;10.484;2023-04-19T02:03:53;101537.81;;;12.46;100.00
26489;BME280;14169;43.684;10.484;2023-04-19T02:06:19;101541.13;;;12.52;100.00
26489;BME280;14169;43.684;10.484;2023-04-19T02:08:44;101536.78;;;12.51;100.00
26489;BME280;14169;43.684;10.484;2023-04-19T02:11:11;101548.16;;;12.50;100.00
26489;BME280;14169;43.684;10.484;2023-04-19T02:13:39;101536.94;;;12.47;100.00
26489;BME280;14169;43.684;10.484;2023-04-19T02:16:04;101536.13;;;12.43;100.00
26489;BME280;14169;43.684;10.484;2023-04-19T02:18:31;101548.56;;;12.35;100.00
26489;BME280;14169;43.684;10.484;2023-04-19T02:21:00;101543.56;;;12.26;100.00
26489;BME280;14169;43.684;10.484;2023-04-19T02:23:26;101547.16;;;12.22;100.00
26489;BME280;14169;43.684;10.484;2023-04-19T02:25:51;101541.06;;;12.22;100.00
26489;BME280;14169;43.684;10.484;2023-04-19T02:28:17;101548.19;;;12.17;100.00
26489;BME280;14169;43.684;10.484;2023-04-19T02:30:43;101544.66;;;12.19;100.00
26489;BME280;14169;43.684;10.484;2023-04-19T02:33:08;101544.50;;;12.24;100.00
26489;BME280;14169;43.684;10.484;2023-04-19T02:35:34;101544.50;;;12.24;100.00
26489;BME280;14169;43.684;10.484;2023-04-19T02:38:01;101534.97;;;12.23;100.00
26489;BME280;14169;43.684;10.484;2023-04-19T02:40:26;101544.66;;;12.18;100.00
26489;BME280;14169;43.684;10.484;2023-04-19T02:42:51;101543.06;;;12.12;100.00
26489;BME280;14169;43.684;10.484;2023-04-19T02:45:17;101532.56;;;12.14;100.00
26489;BME280;14169;43.684;10.484;2023-04-19T02:47:42;101539.63;;;12.10;100.00
26489;BME280;14169;43.684;10.484;2023-04-19T02:50:10;101534.41;;;12.10;100.00
26489;BME280;14169;43.684;10.484;2023-04-19T02:52:36;101535.38;;;12.06;100.00
26489;BME280;14169;43.684;10.484;2023-04-19T02:55:01;101533.78;;;12.01;100.00
26489;BME280;14169;43.684;10.484;2023-04-19T02:57:26;101528.56;;;12.01;100.00
26489;BME280;14169;43.684;10.484;2023-04-19T02:59:52;101536.44;;;11.99;100.00
26489;BME280;14169;43.684;10.484;2023-04-19T03:02:17;101535.59;;;11.99;100.00
26489;BME280;14169;43.684;10.484;2023-04-19T03:04:42;101539.19;;;11.93;100.00
26489;BME280;14169;43.684;10.484;2023-04-19T03:07:08;101529.59;;;11.95;100.00
26489;BME280;14169;43.684;10.484;2023-04-19T03:09:34;101527.81;;;11.96;100.00
26489;BME280;14169;43.684;10.484;2023-04-19T03:11:59;101524.38;;;11.94;100.00
26489;BME280;14169;43.684;10.484;2023-04-19T03:14:25;101526.13;;;11.95;100.00
26489;BME280;14169;43.684;10.484;2023-04-19T03:16:51;101530.53;;;11.90;100.00
26489;BME280;14169;43.684;10.484;2023-04-19T03:19:16;101532.41;;;11.85;100.00
26489;BME280;14169;43.684;10.484;2023-04-19T03:21:41;101532.41;;;11.85;100.00
26489;BME280;14169;43.684;10.484;2023-04-19T03:24:07;101531.59;;;11.82;100.00
26489;BME280;14169;43.684;10.484;2023-04-19T03:26:33;101532.47;;;11.81;100.00
26489;BME280;14169;43.684;10.484;2023-04-19T03:28:58;101527.44;;;11.75;100.00
26489;BME280;14169;43.684;10.484;2023-04-19T03:31:24;101528.38;;;11.73;100.00
26489;BME280;14169;43.684;10.484;2023-04-19T03:33:49;101535.31;;;11.72;100.00
26489;BME280;14169;43.684;10.484;2023-04-19T03:36:15;101535.41;;;11.69;100.00
26489;BME280;14169;43.684;10.484;2023-04-19T03:38:40;101532.88;;;11.66;100.00
26489;BME280;14169;43.684;10.484;2023-04-19T03:41:23;101534.53;;;11.69;100.00
26489;BME280;14169;43.684;10.484;2023-04-19T03:43:49;101532.00;;;11.66;100.00
26489;BME280;14169;43.684;10.484;2023-04-19T03:46:14;101527.75;;;11.62;100.00
26489;BME280;14169;43.684;10.484;2023-04-19T03:48:40;101532.13;;;11.60;100.00
26489;BME280;14169;43.684;10.484;2023-04-19T03:51:05;101527.88;;;11.56;100.00
26489;BME280;14169;43.684;10.484;2023-04-19T03:53:31;101528.00;;;11.51;100.00
26489;BME280;14169;43.684;10.484;2023-04-19T03:55:56;101524.59;;;11.48;100.00
26489;BME280;14169;43.684;10.484;2023-04-19T03:58:21;101516.94;;;11.40;100.00
26489;BME280;14169;43.684;10.484;2023-04-19T04:00:47;101528.34;;;11.36;100.00
26489;BME280;14169;43.684;10.484;2023-04-19T04:03:12;101526.78;;;11.29;100.00
26489;BME280;14169;43.684;10.484;2023-04-19T04:05:38;101524.34;;;11.20;100.00
26489;BME280;14169;43.684;10.484;2023-04-19T04:08:03;101527.09;;;11.14;100.00
26489;BME280;14169;43.684;10.484;2023-04-19T04:10:29;101525.44;;;11.12;100.00
26489;BME280;14169;43.684;10.484;2023-04-19T04:12:54;101528.09;;;11.09;100.00
26489;BME280;14169;43.684;10.484;2023-04-19T04:15:20;101529.97;;;11.04;100.00
26489;BME280;14169;43.684;10.484;2023-04-19T04:17:45;101529.25;;;10.96;100.00
26489;BME280;14169;43.684;10.484;2023-04-19T04:20:11;101522.34;;;10.93;100.00
26489;BME280;14169;43.684;10.484;2023-04-19T04:22:46;101523.22;;;10.93;100.00
26489;BME280;14169;43.684;10.484;2023-04-19T04:25:13;101518.84;;;10.94;100.00
26489;BME280;14169;43.684;10.484;2023-04-19T04:27:40;101522.34;;;10.93;100.00
26489;BME280;14169;43.684;10.484;2023-04-19T04:30:07;101524.81;;;10.99;100.00
26489;BME280;14169;43.684;10.484;2023-04-19T04:32:33;101523.88;;;11.03;100.00
26489;BME280;14169;43.684;10.484;2023-04-19T04:35:03;101524.78;;;11.01;100.00
26489;BME280;14169;43.684;10.484;2023-04-19T04:37:35;101512.75;;;10.95;100.00
26489;BME280;14169;43.684;10.484;2023-04-19T04:40:02;101524.09;;;10.92;100.00
26489;BME280;14169;43.684;10.484;2023-04-19T04:42:32;101528.44;;;10.92;100.00
26489;BME280;14169;43.684;10.484;2023-04-19T04:44:58;101527.59;;;10.91;100.00
26489;BME280;14169;43.684;10.484;2023-04-19T04:47:30;101533.78;;;10.86;100.00
26489;BME280;14169;43.684;10.484;2023-04-19T04:49:56;101530.38;;;10.82;100.00
26489;BME280;14169;43.684;10.484;2023-04-19T04:52:21;101532.97;;;10.82;100.00
26489;BME280;14169;43.684;10.484;2023-04-19T04:54:46;101537.41;;;10.79;100.00
26489;BME280;14169;43.684;10.484;2023-04-19T04:57:12;101549.53;;;10.80;100.00
26489;BME280;14169;43.684;10.484;2023-04-19T04:59:37;101536.50;;;10.81;100.00
26489;BME280;14169;43.684;10.484;2023-04-19T05:02:02;101538.16;;;10.85;100.00
26489;BME280;14169;43.684;10.484;2023-04-19T05:04:28;101544.13;;;10.90;100.00
26489;BME280;14169;43.684;10.484;2023-04-19T05:06:53;101538.81;;;10.95;100.00
26489;BME280;14169;43.684;10.484;2023-04-19T05:09:19;101543.06;;;10.99;100.00
26489;BME280;14169;43.684;10.484;2023-04-19T05:11:44;101550.72;;;11.07;100.00
26489;BME280;14169;43.684;10.484;2023-04-19T05:14:10;101546.19;;;11.16;100.00
26489;BME280;14169;43.684;10.484;2023-04-19T05:16:36;101546.94;;;11.21;100.00
26489;BME280;14169;43.684;10.484;2023-04-19T05:19:02;101549.47;;;11.24;100.00
26489;BME280;14169;43.684;10.484;2023-04-19T05:21:27;101541.63;;;11.26;100.00
26489;BME280;14169;43.684;10.484;2023-04-19T05:23:52;101546.09;;;11.21;100.00
26489;BME280;14169;43.684;10.484;2023-04-19T05:26:18;101551.34;;;11.18;100.00
26489;BME280;14169;43.684;10.484;2023-04-19T05:28:44;101549.66;;;11.17;100.00
26489;BME280;14169;43.684;10.484;2023-04-19T05:31:10;101547.88;;;11.19;100.00
26489;BME280;14169;43.684;10.484;2023-04-19T05:33:36;101544.41;;;11.18;100.00
26489;BME280;14169;43.684;10.484;2023-04-19T05:36:02;101541.78;;;11.18;100.00
26489;BME280;14169;43.684;10.484;2023-04-19T05:38:28;101544.41;;;11.18;100.00
26489;BME280;14169;43.684;10.484;2023-04-19T05:40:53;101545.19;;;11.22;100.00
26489;BME280;14169;43.684;10.484;2023-04-19T05:43:18;101544.22;;;11.27;100.00
26489;BME280;14169;43.684;10.484;2023-04-19T05:45:44;101554.44;;;11.36;100.00
26489;BME280;14169;43.684;10.484;2023-04-19T05:48:10;101552.50;;;11.44;100.00
26489;BME280;14169;43.684;10.484;2023-04-19T05:50:35;101553.28;;;11.49;100.00
26489;BME280;14169;43.684;10.484;2023-04-19T05:53:01;101543.72;;;11.48;100.00
26489;BME280;14169;43.684;10.484;2023-04-19T05:55:26;101553.09;;;11.57;100.00
26489;BME280;14169;43.684;10.484;2023-04-19T05:57:52;101553.75;;;11.66;100.00
26489;BME280;14169;43.684;10.484;2023-04-19T06:00:17;101551.00;;;11.72;100.00
26489;BME280;14169;43.684;10.484;2023-04-19T06:02:43;101553.50;;;11.77;100.00
26489;BME280;14169;43.684;10.484;2023-04-19T06:05:09;101547.38;;;11.78;100.00
26489;BME280;14169;43.684;10.484;2023-04-19T06:07:34;101545.56;;;11.80;100.00
26489;BME280;14169;43.684;10.484;2023-04-19T06:10:00;101546.97;;;11.96;100.00
26489;BME280;14169;43.684;10.484;2023-04-19T06:12:26;101541.31;;;12.13;100.00
26489;BME280;14169;43.684;10.484;2023-04-19T06:14:51;101547.22;;;12.21;100.00
26489;BME280;14169;43.684;10.484;2023-04-19T06:17:16;101542.38;;;12.38;100.00
26489;BME280;14169;43.684;10.484;2023-04-19T06:19:47;101543.63;;;12.57;100.00
26489;BME280;14169;43.684;10.484;2023-04-19T06:22:13;101536.28;;;12.71;100.00
26489;BME280;14169;43.684;10.484;2023-04-19T06:24:38;101535.19;;;12.78;100.00
26489;BME280;14169;43.684;10.484;2023-04-19T06:27:03;101528.78;;;12.88;100.00
26489;BME280;14169;43.684;10.484;2023-04-19T06:29:29;101536.06;;;13.08;100.00
26489;BME280;14169;43.684;10.484;2023-04-19T06:31:54;101533.66;;;13.31;100.00
26489;BME280;14169;43.684;10.484;2023-04-19T06:34:20;101531.50;;;13.43;100.00
26489;BME280;14169;43.684;10.484;2023-04-19T06:36:45;101533.94;;;13.49;100.00
26489;BME280;14169;43.684;10.484;2023-04-19T06:39:11;101532.09;;;13.53;100.00
26489;BME280;14169;43.684;10.484;2023-04-19T06:41:36;101540.00;;;13.78;100.00
26489;BME280;14169;43.684;10.484;2023-04-19T06:44:01;101537.66;;;13.96;100.00
26489;BME280;14169;43.684;10.484;2023-04-19T06:46:27;101542.22;;;14.16;100.00
26489;BME280;14169;43.684;10.484;2023-04-19T06:48:53;101543.47;;;14.32;100.00
26489;BME280;14169;43.684;10.484;2023-04-19T06:51:18;101544.09;;;14.39;100.00
26489;BME280;14169;43.684;10.484;2023-04-19T06:53:43;101544.69;;;14.20;100.00
26489;BME280;14169;43.684;10.484;2023-04-19T06:56:09;101539.22;;;14.02;100.00
26489;BME280;14169;43.684;10.484;2023-04-19T06:58:35;101539.22;;;14.02;100.00
26489;BME280;14169;43.684;10.484;2023-04-19T07:01:02;101538.41;;;14.00;100.00
26489;BME280;14169;43.684;10.484;2023-04-19T07:03:28;101532.81;;;14.10;100.00
26489;BME280;14169;43.684;10.484;2023-04-19T07:05:53;101539.09;;;14.31;100.00
26489;BME280;14169;43.684;10.484;2023-04-19T07:08:21;101537.63;;;14.49;100.00
26489;BME280;14169;43.684;10.484;2023-04-19T07:10:47;101538.69;;;14.68;100.00
26489;BME280;14169;43.684;10.484;2023-04-19T07:13:12;101531.88;;;14.87;100.00
26489;BME280;14169;43.684;10.484;2023-04-19T07:15:38;101539.22;;;15.00;100.00
26489;BME280;14169;43.684;10.484;2023-04-19T07:18:03;101549.06;;;15.17;100.00
26489;BME280;14169;43.684;10.484;2023-04-19T07:20:29;101543.91;;;15.37;100.00
26489;BME280;14169;43.684;10.484;2023-04-19T07:22:59;101543.31;;;15.54;100.00
26489;BME280;14169;43.684;10.484;2023-04-19T07:25:25;101544.66;;;15.64;100.00
26489;BME280;14169;43.684;10.484;2023-04-19T07:27:54;101545.06;;;15.75;100.00
26489;BME280;14169;43.684;10.484;2023-04-19T07:30:20;101552.19;;;15.93;100.00
26489;BME280;14169;43.684;10.484;2023-04-19T07:32:46;101548.94;;;16.08;100.00
26489;BME280;14169;43.684;10.484;2023-04-19T07:35:12;101556.16;;;16.25;100.00
26489;BME280;14169;43.684;10.484;2023-04-19T07:37:37;101547.69;;;16.37;100.00
26489;BME280;14169;43.684;10.484;2023-04-19T07:40:03;101550.69;;;16.49;100.00
26489;BME280;14169;43.684;10.484;2023-04-19T07:42:29;101558.22;;;16.58;100.00
26489;BME280;14169;43.684;10.484;2023-04-19T07:44:55;101554.44;;;16.64;100.00
26489;BME280;14169;43.684;10.484;2023-04-19T07:47:21;101553.25;;;16.71;100.00
26489;BME280;14169;43.684;10.484;2023-04-19T07:49:50;101554.63;;;16.79;100.00
26489;BME280;14169;43.684;10.484;2023-04-19T07:52:16;101555.13;;;16.88;100.00
26489;BME280;14169;43.684;10.484;2023-04-19T07:54:42;101558.84;;;16.83;100.00
26489;BME280;14169;43.684;10.484;2023-04-19T07:57:08;101553.50;;;16.85;100.00
26489;BME280;14169;43.684;10.484;2023-04-19T07:59:33;101551.28;;;16.95;100.00
26489;BME280;14169;43.684;10.484;2023-04-19T08:01:59;101555.97;;;17.08;100.00
26489;BME280;14169;43.684;10.484;2023-04-19T08:04:25;101557.00;;;17.23;100.00
26489;BME280;14169;43.684;10.484;2023-04-19T08:06:50;101555.75;;;17.31;100.00
26489;BME280;14169;43.684;10.484;2023-04-19T08:09:17;101561.41;;;17.42;100.00
26489;BME280;14169;43.684;10.484;2023-04-19T08:11:42;101556.56;;;17.52;100.00
26489;BME280;14169;43.684;10.484;2023-04-19T08:14:10;101556.78;;;17.64;100.00
26489;BME280;14169;43.684;10.484;2023-04-19T08:16:35;101555.50;;;17.73;100.00
26489;BME280;14169;43.684;10.484;2023-04-19T08:19:01;101557.34;;;17.90;100.00
26489;BME280;14169;43.684;10.484;2023-04-19T08:21:26;101557.03;;;17.96;100.00
26489;BME280;14169;43.684;10.484;2023-04-19T08:23:52;101555.56;;;18.07;100.00
26489;BME280;14169;43.684;10.484;2023-04-19T08:26:17;101552.97;;;18.24;100.00
26489;BME280;14169;43.684;10.484;2023-04-19T08:28:43;101554.66;;;18.42;100.00
26489;BME280;14169;43.684;10.484;2023-04-19T08:31:10;101554.75;;;18.58;100.00
26489;BME280;14169;43.684;10.484;2023-04-19T08:33:36;101541.69;;;18.55;100.00
26489;BME280;14169;43.684;10.484;2023-04-19T08:36:01;101546.75;;;18.60;100.00
26489;BME280;14169;43.684;10.484;2023-04-19T08:38:27;101540.91;;;18.70;100.00
26489;BME280;14169;43.684;10.484;2023-04-19T08:40:53;101538.56;;;18.97;100.00
26489;BME280;14169;43.684;10.484;2023-04-19T08:43:19;101540.34;;;19.13;100.00
26489;BME280;14169;43.684;10.484;2023-04-19T08:45:47;101532.84;;;19.37;100.00
26489;BME280;14169;43.684;10.484;2023-04-19T08:48:14;101533.88;;;19.50;100.00
26489;BME280;14169;43.684;10.484;2023-04-19T08:50:43;101533.66;;;19.69;100.00
26489;BME280;14169;43.684;10.484;2023-04-19T08:53:11;101536.72;;;19.77;100.00
26489;BME280;14169;43.684;10.484;2023-04-19T08:55:37;101533.63;;;19.84;100.00
26489;BME280;14169;43.684;10.484;2023-04-19T08:58:04;101519.84;;;19.95;100.00
26489;BME280;14169;43.684;10.484;2023-04-19T09:00:32;101522.06;;;20.16;100.00
26489;BME280;14169;43.684;10.484;2023-04-19T09:02:58;101519.84;;;20.39;100.00
26489;BME280;14169;43.684;10.484;2023-04-19T09:05:23;101523.66;;;20.49;100.00
26489;BME280;14169;43.684;10.484;2023-04-19T09:07:49;101514.78;;;20.50;100.00
26489;BME280;14169;43.684;10.484;2023-04-19T09:10:17;101517.09;;;20.40;100.00
26489;BME280;14169;43.684;10.484;2023-04-19T09:12:58;101512.19;;;20.34;100.00
26489;BME280;14169;43.684;10.484;2023-04-19T09:15:40;101507.75;;;20.49;100.00
26489;BME280;14169;43.684;10.484;2023-04-19T09:18:08;101509.94;;;20.70;100.00
26489;BME280;14169;43.684;10.484;2023-04-19T09:20:38;101502.50;;;20.77;100.00
26489;BME280;14169;43.684;10.484;2023-04-19T09:23:06;101501.00;;;20.87;100.00
26489;BME280;14169;43.684;10.484;2023-04-19T09:25:32;101498.13;;;20.90;100.00
26489;BME280;14169;43.684;10.484;2023-04-19T09:28:10;101506.06;;;21.04;100.00
26489;BME280;14169;43.684;10.484;2023-04-19T09:30:39;101491.38;;;21.27;100.00
26489;BME280;14169;43.684;10.484;2023-04-19T09:33:06;101497.78;;;21.51;100.00
26489;BME280;14169;43.684;10.484;2023-04-19T09:35:47;101495.47;;;21.59;100.00
26489;BME280;14169;43.684;10.484;2023-04-19T09:38:14;101489.59;;;21.80;100.00
26489;BME280;14169;43.684;10.484;2023-04-19T09:40:40;101492.22;;;22.07;100.00
26489;BME280;14169;43.684;10.484;2023-04-19T09:43:06;101487.69;;;22.22;100.00
26489;BME280;14169;43.684;10.484;2023-04-19T09:45:42;101486.50;;;22.26;100.00
26489;BME280;14169;43.684;10.484;2023-04-19T09:48:09;101481.53;;;22.46;100.00
26489;BME280;14169;43.684;10.484;2023-04-19T09:50:36;101469.41;;;22.30;100.00
26489;BME280;14169;43.684;10.484;2023-04-19T09:53:02;101473.97;;;22.15;96.75
26489;BME280;14169;43.684;10.484;2023-04-19T09:55:27;101474.25;;;22.11;97.06
26489;BME280;14169;43.684;10.484;2023-04-19T09:57:53;101470.56;;;22.13;95.18
26489;BME280;14169;43.684;10.484;2023-04-19T10:00:19;101472.03;;;22.05;94.12
26489;BME280;14169;43.684;10.484;2023-04-19T10:02:46;101468.16;;;22.23;93.60
26489;BME280;14169;43.684;10.484;2023-04-19T10:05:20;101460.09;;;22.37;88.99
26489;BME280;14169;43.684;10.484;2023-04-19T10:07:48;101459.03;;;22.39;87.81
26489;BME280;14169;43.684;10.484;2023-04-19T10:10:15;101459.66;;;22.43;87.44
26489;BME280;14169;43.684;10.484;2023-04-19T10:12:44;101458.25;;;22.50;87.10
26489;BME280;14169;43.684;10.484;2023-04-19T10:15:12;101453.13;;;22.72;85.38
26489;BME280;14169;43.684;10.484;2023-04-19T10:17:38;101440.47;;;23.01;84.85
26489;BME280;14169;43.684;10.484;2023-04-19T10:20:08;101441.47;;;23.23;83.80
26489;BME280;14169;43.684;10.484;2023-04-19T10:22:35;101442.72;;;23.41;81.18
26489;BME280;14169;43.684;10.484;2023-04-19T10:27:37;101430.06;;;23.69;77.78
26489;BME280;14169;43.684;10.484;2023-04-19T10:30:03;101422.66;;;23.61;77.60
26489;BME280;14169;43.684;10.484;2023-04-19T10:35:16;101421.38;;;23.78;72.15
26489;BME280;14169;43.684;10.484;2023-04-19T10:38:01;101414.78;;;23.94;71.25
26489;BME280;14169;43.684;10.484;2023-04-19T10:43:34;101403.19;;;24.17;68.32
26489;BME280;14169;43.684;10.484;2023-04-19T10:46:01;101413.16;;;24.38;67.63
26489;BME280;14169;43.684;10.484;2023-04-19T10:48:31;101402.59;;;24.69;66.67
26489;BME280;14169;43.684;10.484;2023-04-19T10:51:17;101393.06;;;24.56;65.40
26489;BME280;14169;43.684;10.484;2023-04-19T10:56:11;101392.16;;;24.88;68.29
26489;BME280;14169;43.684;10.484;2023-04-19T11:01:34;101396.97;;;25.16;65.83
26489;BME280;14169;43.684;10.484;2023-04-19T11:07:03;101383.34;;;24.77;72.77
26489;BME280;14169;43.684;10.484;2023-04-19T11:09:39;101382.47;;;24.87;71.02
26489;BME280;14169;43.684;10.484;2023-04-19T11:12:13;101370.59;;;25.34;68.68
26489;BME280;14169;43.684;10.484;2023-04-19T11:14:41;101370.19;;;25.70;66.08
26489;BME280;14169;43.684;10.484;2023-04-19T11:19:44;101357.09;;;25.67;58.82
26489;BME280;14169;43.684;10.484;2023-04-19T11:22:10;101362.25;;;25.28;65.89
26489;BME280;14169;43.684;10.484;2023-04-19T11:24:35;101365.56;;;24.66;73.95
26489;BME280;14169;43.684;10.484;2023-04-19T11:27:06;101364.81;;;24.09;77.59
26489;BME280;14169;43.684;10.484;2023-04-19T11:29:32;101365.50;;;23.78;80.46
26489;BME280;14169;43.684;10.484;2023-04-19T11:31:59;101359.13;;;23.91;80.72
26489;BME280;14169;43.684;10.484;2023-04-19T11:34:24;101348.34;;;24.04;82.51
26489;BME280;14169;43.684;10.484;2023-04-19T11:36:51;101348.13;;;24.62;77.86
26489;BME280;14169;43.684;10.484;2023-04-19T11:39:17;101340.63;;;25.10;75.50
26489;BME280;14169;43.684;10.484;2023-04-19T11:41:42;101347.97;;;25.17;72.33
26489;BME280;14169;43.684;10.484;2023-04-19T11:44:18;101340.78;;;25.29;70.35
26489;BME280;14169;43.684;10.484;2023-04-19T11:46:59;101348.63;;;25.10;67.67
26489;BME280;14169;43.684;10.484;2023-04-19T11:49:29;101337.84;;;25.32;69.31
26489;BME280;14169;43.684;10.484;2023-04-19T11:51:56;101337.22;;;25.08;71.43
26489;BME280;14169;43.684;10.484;2023-04-19T11:54:23;101335.88;;;25.13;70.40
26489;BME280;14169;43.684;10.484;2023-04-19T11:57:07;101334.75;;;25.27;68.26
26489;BME280;14169;43.684;10.484;2023-04-19T11:59:36;101335.44;;;25.50;67.76
26489;BME280;14169;43.684;10.484;2023-04-19T12:02:11;101330.16;;;25.59;66.29
26489;BME280;14169;43.684;10.484;2023-04-19T12:04:37;101326.69;;;25.79;67.03
26489;BME280;14169;43.684;10.484;2023-04-19T12:07:04;101319.16;;;25.94;66.40
26489;BME280;14169;43.684;10.484;2023-04-19T12:09:32;101318.75;;;25.89;64.41
26489;BME280;14169;43.684;10.484;2023-04-19T12:11:58;101317.94;;;25.98;65.21
26489;BME280;14169;43.684;10.484;2023-04-19T12:14:24;101316.75;;;26.21;64.35
26489;BME280;14169;43.684;10.484;2023-04-19T12:17:10;101321.91;;;26.13;60.83
26489;BME280;14169;43.684;10.484;2023-04-19T12:19:40;101311.75;;;26.28;61.28
26489;BME280;14169;43.684;10.484;2023-04-19T12:22:11;101318.34;;;26.24;58.68
26489;BME280;14169;43.684;10.484;2023-04-19T12:24:37;101318.81;;;26.08;60.95
26489;BME280;14169;43.684;10.484;2023-04-19T12:27:03;101310.84;;;26.18;59.94
26489;BME280;14169;43.684;10.484;2023-04-19T12:29:28;101313.91;;;26.13;60.14
26489;BME280;14169;43.684;10.484;2023-04-19T12:31:54;101314.03;;;25.81;62.34
26489;BME280;14169;43.684;10.484;2023-04-19T12:34:19;101310.66;;;26.10;63.07
26489;BME280;14169;43.684;10.484;2023-04-19T12:36:45;101321.81;;;25.64;61.24
26489;BME280;14169;43.684;10.484;2023-04-19T12:39:10;101322.28;;;25.16;65.09
26489;BME280;14169;43.684;10.484;2023-04-19T12:41:36;101312.66;;;24.40;69.91
26489;BME280;14169;43.684;10.484;2023-04-19T12:44:01;101311.56;;;24.42;71.67
26489;BME280;14169;43.684;10.484;2023-04-19T12:46:27;101308.41;;;24.04;73.93
26489;BME280;14169;43.684;10.484;2023-04-19T12:48:52;101303.56;;;23.98;73.61
26489;BME280;14169;43.684;10.484;2023-04-19T12:51:17;101309.25;;;24.15;73.49